createdAt,value
2022-12-23T00:00:15.633Z,-9.03
2022-12-23T00:03:20.559Z,-9.08
2022-12-23T00:06:26.693Z,-8.93
2022-12-23T00:09:31.260Z,-8.80
2022-12-23T00:12:54.342Z,-8.79
2022-12-23T00:16:12.157Z,-8.64
2022-12-23T00:19:16.598Z,-8.71
2022-12-23T00:22:21.258Z,-8.59
2022-12-23T00:25:41.221Z,-8.51
2022-12-23T00:28:49.358Z,-8.29
2022-12-23T00:31:53.902Z,-8.36
2022-12-23T00:34:58.339Z,-8.38
2022-12-23T00:38:02.834Z,-8.17
2022-12-23T00:41:33.295Z,-7.95
2022-12-23T00:44:37.948Z,-7.90
2022-12-23T00:48:01.741Z,-7.89
2022-12-23T00:51:07.576Z,-7.77
2022-12-23T00:54:12.050Z,-7.42
2022-12-23T00:57:16.417Z,-7.39
2022-12-23T01:00:21.493Z,-7.19
2022-12-23T01:03:44.506Z,-7.56
2022-12-23T01:06:49.320Z,-7.28
2022-12-23T01:09:54.861Z,-7.37
2022-12-23T01:12:59.113Z,-7.35
2022-12-23T01:16:17.301Z,-7.04
2022-12-23T01:19:22.541Z,-7.38
2022-12-23T01:22:27.036Z,-7.17
2022-12-23T01:25:31.970Z,-7.03
2022-12-23T01:28:37.307Z,-7.13
2022-12-23T01:31:42.109Z,-7.01
2022-12-23T01:34:46.442Z,-6.37
2022-12-23T01:37:51.130Z,-6.73
2022-12-23T01:40:58.400Z,-6.34
2022-12-23T01:44:02.891Z,-6.34
2022-12-23T01:47:12.623Z,-6.46
2022-12-23T01:50:30.727Z,-6.30
2022-12-23T01:53:39.476Z,-6.13
2022-12-23T01:56:44.175Z,-5.90
2022-12-23T02:00:07.370Z,-5.77
2022-12-23T02:03:30.526Z,-5.52
2022-12-23T02:06:59.377Z,-5.81
2022-12-23T02:10:05.903Z,-5.71
2022-12-23T02:13:29.148Z,-5.59
2022-12-23T02:17:02.416Z,-5.21
2022-12-23T02:20:25.091Z,-5.36
2022-12-23T02:23:38.120Z,-5.28
2022-12-23T02:26:54.750Z,-5.29
2022-12-23T02:30:25.171Z,-5.16
2022-12-23T02:33:36.237Z,-4.73
2022-12-23T02:36:59.632Z,-4.90
2022-12-23T02:40:12.989Z,-4.55
2022-12-23T02:43:27.120Z,-4.71
2022-12-23T02:46:56.056Z,-4.68
2022-12-23T02:50:08.671Z,-4.13
2022-12-23T02:53:22.978Z,-3.97
2022-12-23T02:56:30.844Z,-3.85
2022-12-23T02:59:42.533Z,-3.78
2022-12-23T03:02:48.147Z,-3.74
2022-12-23T03:05:52.635Z,-4.16
2022-12-23T03:09:00.081Z,-3.80
2022-12-23T03:12:16.576Z,-3.81
2022-12-23T03:15:39.144Z,-4.09
2022-12-23T03:18:59.360Z,-3.64
2022-12-23T03:22:36.033Z,-4.45
2022-12-23T03:25:54.862Z,-4.02
2022-12-23T03:29:26.241Z,-4.13
2022-12-23T03:32:36.772Z,-4.02
2022-12-23T03:36:28.563Z,-4.01
2022-12-23T03:39:40.171Z,-3.73
2022-12-23T03:42:47.727Z,-3.82
2022-12-23T03:45:58.579Z,-4.77
2022-12-23T03:49:08.978Z,-4.20
2022-12-23T03:52:22.025Z,-3.85
2022-12-23T03:55:42.541Z,-3.66
2022-12-23T03:58:59.693Z,-3.11
2022-12-23T04:02:10.223Z,-3.13
2022-12-23T04:05:24.888Z,-3.31
2022-12-23T04:08:38.044Z,-3.54
2022-12-23T04:11:42.727Z,-3.54
2022-12-23T04:14:49.686Z,-3.66
2022-12-23T04:17:55.732Z,-3.85
2022-12-23T04:21:00.266Z,-3.49
2022-12-23T04:24:04.995Z,-3.87
2022-12-23T04:27:12.080Z,-3.59
2022-12-23T04:30:16.784Z,-3.56
2022-12-23T04:33:22.876Z,-3.63
2022-12-23T04:36:27.575Z,-3.55
2022-12-23T04:39:32.074Z,-3.82
2022-12-23T04:42:37.024Z,-4.27
2022-12-23T04:45:41.631Z,-4.29
2022-12-23T04:48:46.287Z,-4.39
2022-12-23T04:51:50.880Z,-4.26
2022-12-23T04:54:55.448Z,-4.21
2022-12-23T04:57:59.777Z,-4.23
2022-12-23T05:01:10.237Z,-4.13
2022-12-23T05:04:15.927Z,-4.05
2022-12-23T05:07:20.366Z,-4.31
2022-12-23T05:10:24.899Z,-4.08
2022-12-23T05:13:29.497Z,-4.32
2022-12-23T05:16:34.851Z,-3.95
2022-12-23T05:19:39.617Z,-3.85
2022-12-23T05:22:44.133Z,-4.14
2022-12-23T05:25:54.246Z,-3.97
2022-12-23T05:28:58.578Z,-3.86
2022-12-23T05:32:02.845Z,-4.09
2022-12-23T05:35:08.504Z,-4.25
2022-12-23T05:38:13.413Z,-3.95
2022-12-23T05:41:18.526Z,-3.74
2022-12-23T05:44:23.191Z,-4.08
2022-12-23T05:47:27.716Z,-4.19
2022-12-23T05:50:32.155Z,-4.24
2022-12-23T05:53:39.215Z,-4.19
2022-12-23T05:56:43.590Z,-4.15
2022-12-23T05:59:48.255Z,-4.36
2022-12-23T06:02:54.217Z,-4.15
2022-12-23T06:05:59.030Z,-4.34
2022-12-23T06:09:03.756Z,-4.44
2022-12-23T06:12:09.091Z,-4.40
2022-12-23T06:15:13.907Z,-4.57
2022-12-23T06:18:18.769Z,-4.43
2022-12-23T06:21:23.099Z,-4.58
2022-12-23T06:24:27.492Z,-4.60
2022-12-23T06:27:32.264Z,-4.44
2022-12-23T06:30:36.657Z,-4.70
2022-12-23T06:33:41.080Z,-5.16
2022-12-23T06:36:47.496Z,-5.09
2022-12-23T06:39:51.803Z,-5.19
2022-12-23T06:42:56.143Z,-5.23
2022-12-23T06:46:00.827Z,-5.25
2022-12-23T06:49:12.598Z,-5.16
2022-12-23T06:52:17.909Z,-5.59
2022-12-23T06:55:22.425Z,-5.59
2022-12-23T06:58:26.847Z,-5.67
2022-12-23T07:01:31.569Z,-5.65
2022-12-23T07:04:36.155Z,-5.65
2022-12-23T07:07:40.367Z,-5.67
2022-12-23T07:10:44.583Z,-5.71
2022-12-23T07:13:49.150Z,-5.85
2022-12-23T07:16:53.680Z,-5.82
2022-12-23T07:19:58.395Z,-5.84
2022-12-23T07:23:02.865Z,-5.98
2022-12-23T07:26:07.750Z,-5.77
2022-12-23T07:29:12.136Z,-5.76
2022-12-23T07:32:16.610Z,-5.81
2022-12-23T07:35:21.106Z,-5.86
2022-12-23T07:38:25.682Z,-5.87
2022-12-23T07:41:30.296Z,-5.82
2022-12-23T07:44:41.307Z,-5.82
2022-12-23T07:47:46.048Z,-5.90
2022-12-23T07:50:50.781Z,-5.86
2022-12-23T07:53:55.555Z,-5.94
2022-12-23T07:57:00.254Z,-6.02
2022-12-23T08:00:06.951Z,-5.87
2022-12-23T08:03:19.287Z,-5.86
2022-12-23T08:06:23.909Z,-5.80
2022-12-23T08:09:28.432Z,-5.89
2022-12-23T08:12:32.852Z,-5.92
2022-12-23T08:15:37.388Z,-5.99
2022-12-23T08:18:43.196Z,-5.85
2022-12-23T08:21:47.509Z,-5.82
2022-12-23T08:24:53.379Z,-5.75
2022-12-23T08:27:58.064Z,-5.88
2022-12-23T08:31:13.284Z,-5.78
2022-12-23T08:34:18.300Z,-5.85
2022-12-23T08:37:23.009Z,-5.71
2022-12-23T08:40:27.688Z,-5.59
2022-12-23T08:43:35.792Z,-5.78
2022-12-23T08:46:41.554Z,-5.76
2022-12-23T08:49:46.036Z,-5.73
2022-12-23T08:52:50.632Z,-5.64
2022-12-23T08:55:55.117Z,-5.65
2022-12-23T08:58:59.474Z,-5.77
2022-12-23T09:02:04.671Z,-5.62
2022-12-23T09:05:10.820Z,-5.64
2022-12-23T09:08:15.910Z,-5.61
2022-12-23T09:11:25.433Z,-5.62
2022-12-23T09:14:31.251Z,-5.61
2022-12-23T09:17:35.849Z,-5.58
2022-12-23T09:20:40.725Z,-5.49
2022-12-23T09:23:45.479Z,-5.46
2022-12-23T09:26:49.984Z,-5.54
2022-12-23T09:29:54.458Z,-5.42
2022-12-23T09:32:58.987Z,-5.51
2022-12-23T09:36:04.549Z,-5.44
2022-12-23T09:39:09.117Z,-5.35
2022-12-23T09:42:41.181Z,-5.33
2022-12-23T09:46:08.401Z,-5.57
2022-12-23T09:49:19.865Z,-5.38
2022-12-23T09:52:47.262Z,-5.24
2022-12-23T09:56:17.900Z,-5.25
2022-12-23T09:59:36.191Z,-5.43
2022-12-23T10:02:43.994Z,-5.24
2022-12-23T10:05:57.212Z,-5.30
2022-12-23T10:09:16.359Z,-5.49
2022-12-23T10:12:40.571Z,-5.26
2022-12-23T10:15:49.676Z,-5.22
2022-12-23T10:19:22.002Z,-5.06
2022-12-23T10:22:44.017Z,-5.18
2022-12-23T10:25:52.758Z,-5.24
2022-12-23T10:29:12.827Z,-5.31
2022-12-23T10:32:31.479Z,-5.18
2022-12-23T10:35:46.493Z,-5.12
2022-12-23T10:39:13.464Z,-4.99
2022-12-23T10:42:21.132Z,-4.94
2022-12-23T10:45:46.143Z,-5.00
2022-12-23T10:49:10.243Z,-4.91
2022-12-23T10:52:21.525Z,-4.94
2022-12-23T10:55:34.525Z,-4.88
2022-12-23T10:58:44.600Z,-4.68
2022-12-23T11:01:56.585Z,-4.84
2022-12-23T11:05:01.182Z,-4.86
2022-12-23T11:08:07.101Z,-4.89
2022-12-23T11:11:11.793Z,-4.90
2022-12-23T11:14:33.423Z,-4.71
2022-12-23T11:17:38.040Z,-4.71
2022-12-23T11:20:44.827Z,-4.85
2022-12-23T11:23:49.877Z,-4.92
2022-12-23T11:27:06.173Z,-4.71
2022-12-23T11:30:19.941Z,-4.74
2022-12-23T11:33:34.323Z,-4.67
2022-12-23T11:36:38.811Z,-4.56
2022-12-23T11:39:47.963Z,-5.05
2022-12-23T11:43:02.822Z,-4.68
2022-12-23T11:46:25.983Z,-4.70
2022-12-23T11:49:32.603Z,-4.78
2022-12-23T11:52:37.284Z,-4.78
2022-12-23T11:55:49.674Z,-4.62
2022-12-23T11:59:09.626Z,-4.70
2022-12-23T12:02:22.697Z,-4.65
2022-12-23T12:05:31.582Z,-4.66
2022-12-23T12:08:39.284Z,-4.78
2022-12-23T12:11:51.179Z,-4.69
2022-12-23T12:14:58.483Z,-4.69
2022-12-23T12:18:10.140Z,-4.89
2022-12-23T12:21:21.906Z,-4.91
2022-12-23T12:24:40.089Z,-4.58
2022-12-23T12:27:59.527Z,-4.70
2022-12-23T12:31:14.368Z,-4.75
2022-12-23T12:34:39.381Z,-4.76
2022-12-23T12:37:51.162Z,-4.83
2022-12-23T12:41:04.309Z,-4.84
2022-12-23T12:44:17.758Z,-4.66
2022-12-23T12:47:53.454Z,-4.91
2022-12-23T12:51:17.784Z,-4.85
2022-12-23T12:54:37.392Z,-4.73
2022-12-23T12:57:42.529Z,-4.76
2022-12-23T13:01:06.101Z,-4.82
2022-12-23T13:04:46.169Z,-4.79
2022-12-23T13:08:26.913Z,-4.73
2022-12-23T13:12:16.481Z,-4.59
2022-12-23T13:15:31.742Z,-4.53
2022-12-23T13:18:38.701Z,-4.58
2022-12-23T13:22:05.179Z,-4.59
2022-12-23T13:25:41.136Z,-4.62
2022-12-23T13:28:57.950Z,-4.42
2022-12-23T13:32:32.719Z,-4.31
2022-12-23T13:35:59.719Z,-4.21
2022-12-23T13:39:19.480Z,-4.46
2022-12-23T13:42:35.121Z,-4.46
2022-12-23T13:45:44.012Z,-5.02
2022-12-23T13:48:54.479Z,-4.27
2022-12-23T13:52:18.764Z,-4.12
2022-12-23T13:55:30.216Z,-4.38
2022-12-23T13:58:35.658Z,-4.40
2022-12-23T14:01:47.980Z,-4.46
2022-12-23T14:04:59.753Z,-4.43
2022-12-23T14:08:34.815Z,-4.32
2022-12-23T14:11:39.842Z,-4.29
2022-12-23T14:15:00.524Z,-4.51
2022-12-23T14:18:34.966Z,-4.42
2022-12-23T14:22:34.836Z,-4.30
2022-12-23T14:26:02.071Z,-4.29
2022-12-23T14:29:19.937Z,-4.20
2022-12-23T14:32:31.029Z,-4.32
2022-12-23T14:35:42.152Z,-4.18
2022-12-23T14:39:13.044Z,-4.27
2022-12-23T14:42:42.584Z,-4.28
2022-12-23T14:45:47.266Z,-4.61
2022-12-23T14:49:09.635Z,-4.27
2022-12-23T14:52:44.664Z,-4.21
2022-12-23T14:55:51.501Z,-4.24
2022-12-23T14:59:17.222Z,-4.20
2022-12-23T15:02:36.707Z,-4.24
2022-12-23T15:05:42.167Z,-4.38
2022-12-23T15:08:48.950Z,-4.46
2022-12-23T15:11:57.168Z,-4.48
2022-12-23T15:15:26.148Z,-4.47
2022-12-23T15:18:30.910Z,-4.69
2022-12-23T15:21:37.061Z,-4.45
2022-12-23T15:24:43.518Z,-4.45
2022-12-23T15:27:48.289Z,-4.63
2022-12-23T15:30:57.928Z,-4.92
2022-12-23T15:34:16.804Z,-4.37
2022-12-23T15:37:33.214Z,-4.48
2022-12-23T15:40:39.596Z,-4.37
2022-12-23T15:43:45.816Z,-4.59
2022-12-23T15:46:51.397Z,-4.71
2022-12-23T15:50:02.664Z,-4.53
2022-12-23T15:53:09.841Z,-4.84
2022-12-23T15:56:30.596Z,-4.66
2022-12-23T15:59:39.515Z,-4.72
2022-12-23T16:03:02.920Z,-4.80
2022-12-23T16:06:17.462Z,-4.97
2022-12-23T16:09:22.469Z,-4.80
2022-12-23T16:12:28.932Z,-4.98
2022-12-23T16:15:34.512Z,-4.95
2022-12-23T16:18:47.220Z,-5.19
2022-12-23T16:21:52.424Z,-5.17
2022-12-23T16:25:12.679Z,-5.15
2022-12-23T16:28:24.862Z,-5.06
2022-12-23T16:31:29.504Z,-5.10
2022-12-23T16:34:34.131Z,-5.40
2022-12-23T16:37:38.609Z,-5.35
2022-12-23T16:40:44.798Z,-5.17
2022-12-23T16:43:52.494Z,-5.15
2022-12-23T16:46:57.507Z,-5.03
2022-12-23T16:50:02.078Z,-5.06
2022-12-23T16:53:06.697Z,-5.13
2022-12-23T16:56:20.037Z,-5.10
2022-12-23T16:59:25.752Z,-4.97
2022-12-23T17:02:30.978Z,-4.99
2022-12-23T17:05:36.002Z,-4.87
2022-12-23T17:09:00.777Z,-5.13
2022-12-23T17:12:06.016Z,-4.85
2022-12-23T17:15:44.967Z,-4.88
2022-12-23T17:18:51.263Z,-4.89
2022-12-23T17:22:01.219Z,-5.18
2022-12-23T17:25:06.217Z,-4.77
2022-12-23T17:28:12.109Z,-4.96
2022-12-23T17:31:26.343Z,-4.95
2022-12-23T17:34:31.487Z,-5.00
2022-12-23T17:37:36.641Z,-5.31
2022-12-23T17:40:41.285Z,-5.25
2022-12-23T17:43:46.309Z,-5.36
2022-12-23T17:46:50.739Z,-5.13
2022-12-23T17:49:55.291Z,-5.23
2022-12-23T17:52:59.927Z,-5.41
2022-12-23T17:56:04.548Z,-5.38
2022-12-23T17:59:09.522Z,-5.30
2022-12-23T18:02:36.273Z,-5.27
2022-12-23T18:05:41.732Z,-5.26
2022-12-23T18:08:47.205Z,-4.99
2022-12-23T18:11:51.869Z,-5.33
2022-12-23T18:14:58.089Z,-5.59
2022-12-23T18:18:02.936Z,-5.32
2022-12-23T18:21:07.693Z,-5.51
2022-12-23T18:24:12.606Z,-5.53
2022-12-23T18:27:19.820Z,-5.35
2022-12-23T18:30:24.577Z,-5.65
2022-12-23T18:33:31.128Z,-5.61
2022-12-23T18:36:36.096Z,-5.59
2022-12-23T18:39:40.769Z,-5.78
2022-12-23T18:42:47.139Z,-5.57
2022-12-23T18:45:54.356Z,-5.69
2022-12-23T18:48:59.404Z,-5.78
2022-12-23T18:52:08.243Z,-5.87
2022-12-23T18:55:13.689Z,-5.61
2022-12-23T18:58:21.528Z,-5.68
2022-12-23T19:01:26.051Z,-5.72
2022-12-23T19:04:30.848Z,-5.81
2022-12-23T19:07:35.962Z,-5.48
2022-12-23T19:10:40.932Z,-5.45
2022-12-23T19:13:46.690Z,-5.30
2022-12-23T19:16:52.385Z,-5.30
2022-12-23T19:19:57.131Z,-5.12
2022-12-23T19:23:01.665Z,-5.19
2022-12-23T19:26:07.158Z,-5.20
2022-12-23T19:29:11.864Z,-5.24
2022-12-23T19:32:16.714Z,-5.36
2022-12-23T19:35:21.942Z,-5.34
2022-12-23T19:38:27.522Z,-5.33
2022-12-23T19:41:32.279Z,-5.34
2022-12-23T19:44:36.887Z,-5.32
2022-12-23T19:47:41.441Z,-5.48
2022-12-23T19:50:45.774Z,-5.55
2022-12-23T19:53:52.637Z,-5.52
2022-12-23T19:56:57.174Z,-5.79
2022-12-23T20:00:03.532Z,-5.86
2022-12-23T20:03:16.594Z,-5.86
2022-12-23T20:06:25.629Z,-5.73
2022-12-23T20:09:30.139Z,-5.71
2022-12-23T20:12:34.733Z,-5.90
2022-12-23T20:15:39.248Z,-5.64
2022-12-23T20:19:02.537Z,-5.82
2022-12-23T20:22:25.347Z,-6.03
2022-12-23T20:25:30.429Z,-5.81
2022-12-23T20:28:35.444Z,-6.20
2022-12-23T20:31:40.673Z,-6.39
2022-12-23T20:34:45.236Z,-6.27
2022-12-23T20:37:49.803Z,-6.36
2022-12-23T20:40:54.333Z,-6.41
2022-12-23T20:47:24.176Z,-6.51
2022-12-23T20:50:28.557Z,-6.58
2022-12-23T20:53:33.465Z,-6.37
2022-12-23T20:56:37.933Z,-6.28
2022-12-23T20:59:42.589Z,-6.18
2022-12-23T21:02:47.326Z,-6.41
2022-12-23T21:05:51.899Z,-6.36
2022-12-23T21:08:58.972Z,-6.46
2022-12-23T21:12:03.839Z,-6.41
2022-12-23T21:15:09.775Z,-6.34
2022-12-23T21:18:14.217Z,-6.61
2022-12-23T21:21:18.614Z,-6.33
2022-12-23T21:24:23.172Z,-6.55
2022-12-23T21:27:27.879Z,-6.51
2022-12-23T21:30:32.265Z,-6.40
2022-12-23T21:33:39.302Z,-6.34
2022-12-23T21:36:44.369Z,-6.08
2022-12-23T21:39:49.042Z,-6.13
2022-12-23T21:42:53.558Z,-6.23
2022-12-23T21:46:06.721Z,-6.28
2022-12-23T21:49:12.048Z,-6.27
2022-12-23T21:52:16.593Z,-6.16
2022-12-23T21:55:21.177Z,-6.30
2022-12-23T21:58:26.597Z,-6.12
2022-12-23T22:01:31.673Z,-6.28
2022-12-23T22:04:36.191Z,-6.19
2022-12-23T22:07:40.798Z,-6.35
2022-12-23T22:10:46.419Z,-6.19
2022-12-23T22:13:51.171Z,-6.14
2022-12-23T22:16:55.722Z,-6.33
2022-12-23T22:20:00.211Z,-6.51
2022-12-23T22:23:05.098Z,-6.48
2022-12-23T22:26:15.506Z,-6.68
2022-12-23T22:29:23.124Z,-6.55
2022-12-23T22:32:27.953Z,-6.45
2022-12-23T22:35:32.379Z,-6.49
2022-12-23T22:38:36.989Z,-6.51
2022-12-23T22:41:41.429Z,-6.64
2022-12-23T22:44:45.873Z,-6.87
2022-12-23T22:47:50.657Z,-6.32
2022-12-23T22:51:03.693Z,-6.41
2022-12-23T22:54:08.561Z,-6.31
2022-12-23T22:57:12.901Z,-6.27
2022-12-23T23:00:17.923Z,-6.36
2022-12-23T23:03:22.747Z,-6.51
2022-12-23T23:06:35.729Z,-6.58
2022-12-23T23:09:40.263Z,-6.58
2022-12-23T23:12:45.179Z,-6.45
2022-12-23T23:15:50.117Z,-6.39
2022-12-23T23:18:55.291Z,-6.41
2022-12-23T23:21:59.505Z,-6.28
2022-12-23T23:25:04.107Z,-6.39
2022-12-23T23:28:08.625Z,-6.31
2022-12-23T23:34:38.618Z,-6.31
2022-12-23T23:37:43.417Z,-6.06
2022-12-23T23:40:54.493Z,-6.17
2022-12-23T23:43:58.851Z,-5.96
2022-12-23T23:47:03.719Z,-5.87
2022-12-23T23:50:09.275Z,-5.71
2022-12-23T23:53:14.634Z,-5.57
2022-12-23T23:56:24.793Z,-5.79
2022-12-23T23:59:30.254Z,-5.54
